createdAt,value
2022-11-26T00:00:54.933Z,91.50
2022-11-26T00:03:23.545Z,91.60
2022-11-26T00:05:57.205Z,91.60
2022-11-26T00:08:32.492Z,91.50
2022-11-26T00:11:01.586Z,91.60
2022-11-26T00:13:32.916Z,91.50
2022-11-26T00:16:01.254Z,91.50
2022-11-26T00:18:29.568Z,91.70
2022-11-26T00:21:02.440Z,91.70
2022-11-26T00:23:30.858Z,91.70
2022-11-26T00:26:02.781Z,91.80
2022-11-26T00:28:33.986Z,91.60
2022-11-26T00:31:05.196Z,91.80
2022-11-26T00:33:34.491Z,92.00
2022-11-26T00:36:17.072Z,91.80
2022-11-26T00:38:46.061Z,91.60
2022-11-26T00:41:19.172Z,91.60
2022-11-26T00:43:47.988Z,91.60
2022-11-26T00:46:17.044Z,91.80
2022-11-26T00:48:45.905Z,91.90
2022-11-26T00:51:20.313Z,91.90
2022-11-26T00:53:49.731Z,91.80
2022-11-26T00:56:21.442Z,91.80
2022-11-26T00:58:51.589Z,91.90
2022-11-26T01:01:27.521Z,91.90
2022-11-26T01:03:55.918Z,92.00
2022-11-26T01:06:31.642Z,91.90
2022-11-26T01:09:00.225Z,91.90
2022-11-26T01:11:28.547Z,92.00
2022-11-26T01:13:57.072Z,92.00
2022-11-26T01:16:28.732Z,92.00
2022-11-26T01:19:00.774Z,92.00
2022-11-26T01:21:33.513Z,92.10
2022-11-26T01:24:01.799Z,92.10
2022-11-26T01:26:36.226Z,92.10
2022-11-26T01:29:04.504Z,92.10
2022-11-26T01:31:32.825Z,92.20
2022-11-26T01:34:01.153Z,92.30
2022-11-26T01:36:33.479Z,92.30
2022-11-26T01:39:05.792Z,92.10
2022-11-26T01:41:47.149Z,92.10
2022-11-26T01:44:21.262Z,92.20
2022-11-26T01:46:51.478Z,92.20
2022-11-26T01:49:23.500Z,91.90
2022-11-26T01:52:06.856Z,92.00
2022-11-26T01:54:38.449Z,92.00
2022-11-26T01:57:12.893Z,92.20
2022-11-26T01:59:44.668Z,92.20
2022-11-26T02:02:13.782Z,92.30
2022-11-26T02:04:48.479Z,92.40
2022-11-26T02:07:18.832Z,92.40
2022-11-26T02:09:48.934Z,92.50
2022-11-26T02:12:19.820Z,92.50
2022-11-26T02:14:48.911Z,92.60
2022-11-26T02:17:24.804Z,92.70
2022-11-26T02:20:37.155Z,92.70
2022-11-26T02:24:08.915Z,92.60
2022-11-26T02:27:22.551Z,92.50
2022-11-26T02:30:04.559Z,92.70
2022-11-26T02:32:43.717Z,92.70
2022-11-26T02:35:20.829Z,92.80
2022-11-26T02:37:52.825Z,92.80
2022-11-26T02:40:21.570Z,92.80
2022-11-26T02:42:49.844Z,92.70
2022-11-26T02:45:23.898Z,92.90
2022-11-26T02:47:55.332Z,92.90
2022-11-26T02:50:28.059Z,92.70
2022-11-26T02:52:58.816Z,92.70
2022-11-26T02:55:31.438Z,92.70
2022-11-26T02:58:00.500Z,92.60
2022-11-26T03:00:30.287Z,92.60
2022-11-26T03:03:03.048Z,92.60
2022-11-26T03:05:36.709Z,92.60
2022-11-26T03:08:07.002Z,92.60
2022-11-26T03:10:35.678Z,92.70
2022-11-26T03:13:03.947Z,92.60
2022-11-26T03:15:33.562Z,92.60
2022-11-26T03:18:01.854Z,92.50
2022-11-26T03:20:30.185Z,92.60
2022-11-26T03:22:58.634Z,92.60
2022-11-26T03:25:27.166Z,92.60
2022-11-26T03:27:55.435Z,92.60
2022-11-26T03:30:24.394Z,92.50
2022-11-26T03:32:54.013Z,92.50
2022-11-26T03:35:22.416Z,92.50
2022-11-26T03:37:50.675Z,92.60
2022-11-26T03:40:19.225Z,92.50
2022-11-26T03:42:47.486Z,92.50
2022-11-26T03:45:15.925Z,92.50
2022-11-26T03:47:44.190Z,92.60
2022-11-26T03:50:14.170Z,92.50
2022-11-26T03:52:42.474Z,92.60
2022-11-26T03:55:11.280Z,92.70
2022-11-26T03:57:39.891Z,92.70
2022-11-26T04:00:10.462Z,92.70
2022-11-26T04:02:38.956Z,92.60
2022-11-26T04:05:08.597Z,92.60
2022-11-26T04:07:38.342Z,92.70
2022-11-26T04:10:08.513Z,92.70
2022-11-26T04:12:36.851Z,92.60
2022-11-26T04:15:05.883Z,92.60
2022-11-26T04:17:34.200Z,92.70
2022-11-26T04:20:02.471Z,92.80
2022-11-26T04:22:30.738Z,92.90
2022-11-26T04:25:00.382Z,92.90
2022-11-26T04:27:28.612Z,92.90
2022-11-26T04:29:56.847Z,93.00
2022-11-26T04:32:25.547Z,93.00
2022-11-26T04:34:53.844Z,93.10
2022-11-26T04:37:22.100Z,93.10
2022-11-26T04:39:50.397Z,93.20
2022-11-26T04:42:20.090Z,93.20
2022-11-26T04:44:48.368Z,93.10
2022-11-26T04:47:16.841Z,93.10
2022-11-26T04:49:45.289Z,93.20
2022-11-26T04:52:13.588Z,93.30
2022-11-26T04:54:41.889Z,93.40
2022-11-26T04:57:10.439Z,93.40
2022-11-26T04:59:40.055Z,93.40
2022-11-26T05:02:08.367Z,93.40
2022-11-26T05:04:36.820Z,93.30
2022-11-26T05:07:05.956Z,93.30
2022-11-26T05:09:34.444Z,93.20
2022-11-26T05:12:02.959Z,93.30
2022-11-26T05:14:31.203Z,93.30
2022-11-26T05:17:01.225Z,93.40
2022-11-26T05:19:29.625Z,93.30
2022-11-26T05:21:57.902Z,93.40
2022-11-26T05:24:26.439Z,93.30
2022-11-26T05:26:57.070Z,93.20
2022-11-26T05:29:25.910Z,93.20
2022-11-26T05:31:54.465Z,93.30
2022-11-26T05:34:24.302Z,93.30
2022-11-26T05:36:52.525Z,93.30
2022-11-26T05:39:21.021Z,93.30
2022-11-26T05:41:49.448Z,93.20
2022-11-26T05:44:17.751Z,93.30
2022-11-26T05:46:46.039Z,93.20
2022-11-26T05:49:14.440Z,93.30
2022-11-26T05:51:44.093Z,93.30
2022-11-26T05:54:15.016Z,93.20
2022-11-26T05:56:44.510Z,93.30
2022-11-26T05:59:12.935Z,93.20
2022-11-26T06:01:41.204Z,93.10
2022-11-26T06:04:09.767Z,93.20
2022-11-26T06:06:38.108Z,93.10
2022-11-26T06:09:07.791Z,93.20
2022-11-26T06:11:36.083Z,93.10
2022-11-26T06:14:04.370Z,93.20
2022-11-26T06:16:32.901Z,93.30
2022-11-26T06:19:01.204Z,93.30
2022-11-26T06:21:29.553Z,93.30
2022-11-26T06:23:59.800Z,93.30
2022-11-26T06:26:29.703Z,93.30
2022-11-26T06:28:58.009Z,93.30
2022-11-26T06:31:26.389Z,93.20
2022-11-26T06:33:56.203Z,93.20
2022-11-26T06:36:24.907Z,93.20
2022-11-26T06:38:53.267Z,93.20
2022-11-26T06:41:21.627Z,93.10
2022-11-26T06:43:51.340Z,93.10
2022-11-26T06:46:19.759Z,93.10
2022-11-26T06:48:48.118Z,93.10
2022-11-26T06:51:20.499Z,93.10
2022-11-26T06:53:49.007Z,93.10
2022-11-26T06:56:19.319Z,93.00
2022-11-26T06:58:48.332Z,93.10
2022-11-26T07:01:20.389Z,93.10
2022-11-26T07:03:49.023Z,93.10
2022-11-26T07:06:18.971Z,93.20
2022-11-26T07:08:48.241Z,93.10
2022-11-26T07:11:16.661Z,93.10
2022-11-26T07:13:45.462Z,93.10
2022-11-26T07:16:14.698Z,93.20
2022-11-26T07:18:44.670Z,93.10
2022-11-26T07:21:15.154Z,93.10
2022-11-26T07:23:43.733Z,93.20
2022-11-26T07:26:13.799Z,93.10
2022-11-26T07:28:42.987Z,93.10
2022-11-26T07:31:16.908Z,93.10
2022-11-26T07:33:47.650Z,93.00
2022-11-26T07:36:18.930Z,93.00
2022-11-26T07:38:47.757Z,92.90
2022-11-26T07:41:20.191Z,92.90
2022-11-26T07:43:49.882Z,93.00
2022-11-26T07:46:22.977Z,92.90
2022-11-26T07:48:52.837Z,93.00
2022-11-26T07:51:24.640Z,93.10
2022-11-26T07:53:53.271Z,93.00
2022-11-26T07:56:21.656Z,93.10
2022-11-26T07:58:50.132Z,93.10
2022-11-26T08:01:24.381Z,93.10
2022-11-26T08:03:56.771Z,93.10
2022-11-26T08:06:28.348Z,93.10
2022-11-26T08:08:56.695Z,93.10
2022-11-26T08:11:27.340Z,93.10
2022-11-26T08:13:58.069Z,93.20
2022-11-26T08:16:28.794Z,93.20
2022-11-26T08:19:00.582Z,93.20
2022-11-26T08:21:29.822Z,93.30
2022-11-26T08:23:58.537Z,93.30
2022-11-26T08:26:35.865Z,93.40
2022-11-26T08:29:06.847Z,93.40
2022-11-26T08:31:37.283Z,93.30
2022-11-26T08:34:11.881Z,93.30
2022-11-26T08:36:40.308Z,93.20
2022-11-26T08:39:08.813Z,93.20
2022-11-26T08:41:37.144Z,93.10
2022-11-26T08:44:07.210Z,93.10
2022-11-26T08:46:36.522Z,93.00
2022-11-26T08:49:05.233Z,92.90
2022-11-26T08:51:37.131Z,92.90
2022-11-26T08:54:05.932Z,93.00
2022-11-26T08:56:34.869Z,92.90
2022-11-26T08:59:03.919Z,92.90
2022-11-26T09:01:34.541Z,92.80
2022-11-26T09:04:04.635Z,92.70
2022-11-26T09:06:37.815Z,92.60
2022-11-26T09:09:13.919Z,92.60
2022-11-26T09:11:46.704Z,92.70
2022-11-26T09:14:16.677Z,92.40
2022-11-26T09:16:45.437Z,92.00
2022-11-26T09:19:15.776Z,91.90
2022-11-26T09:21:45.653Z,91.90
2022-11-26T09:24:14.283Z,91.90
2022-11-26T09:26:43.009Z,91.90
2022-11-26T09:29:15.181Z,91.80
2022-11-26T09:32:07.395Z,91.70
2022-11-26T09:34:33.302Z,91.70
2022-11-26T09:37:02.985Z,91.90
2022-11-26T09:39:31.554Z,91.70
2022-11-26T09:42:06.437Z,91.60
2022-11-26T09:44:48.285Z,91.60
2022-11-26T09:47:20.213Z,91.50
2022-11-26T09:50:02.944Z,91.40
2022-11-26T09:52:43.066Z,91.30
2022-11-26T09:55:17.430Z,91.30
2022-11-26T09:57:51.850Z,91.20
2022-11-26T10:00:27.701Z,91.30
2022-11-26T10:02:58.285Z,91.20
2022-11-26T10:05:42.464Z,91.20
2022-11-26T10:08:56.568Z,91.20
2022-11-26T10:11:34.527Z,91.10
2022-11-26T10:14:19.833Z,91.00
2022-11-26T10:16:58.938Z,91.00
2022-11-26T10:19:39.166Z,90.90
2022-11-26T10:22:20.296Z,91.10
2022-11-26T10:24:51.060Z,90.90
2022-11-26T10:27:22.365Z,90.90
2022-11-26T10:29:55.660Z,90.80
2022-11-26T10:32:28.750Z,91.00
2022-11-26T10:34:59.199Z,91.10
2022-11-26T10:37:29.523Z,90.90
2022-11-26T10:40:12.700Z,91.00
2022-11-26T10:42:44.078Z,91.00
2022-11-26T10:45:21.189Z,90.90
2022-11-26T10:47:49.442Z,90.80
2022-11-26T10:53:22.359Z,90.80
2022-11-26T10:55:53.768Z,90.70
2022-11-26T10:58:25.753Z,90.80
2022-11-26T11:01:01.391Z,90.80
2022-11-26T11:06:40.002Z,90.80
2022-11-26T11:09:29.058Z,90.60
2022-11-26T11:12:24.360Z,90.50
2022-11-26T11:14:53.388Z,90.80
2022-11-26T11:17:32.393Z,90.70
2022-11-26T11:20:07.898Z,90.70
2022-11-26T11:22:36.390Z,90.50
2022-11-26T11:25:04.955Z,90.60
2022-11-26T11:27:44.555Z,90.50
2022-11-26T11:30:26.508Z,90.40
2022-11-26T11:32:57.998Z,90.30
2022-11-26T11:35:30.376Z,90.30
2022-11-26T11:37:59.915Z,90.40
2022-11-26T11:40:30.975Z,90.50
2022-11-26T11:43:01.934Z,90.40
2022-11-26T11:45:35.520Z,89.90
2022-11-26T11:48:17.992Z,89.80
2022-11-26T11:50:56.858Z,89.40
2022-11-26T11:53:40.176Z,89.20
2022-11-26T11:56:26.073Z,89.50
2022-11-26T11:59:47.848Z,89.50
2022-11-26T12:02:37.478Z,89.10
2022-11-26T12:05:29.082Z,88.50
2022-11-26T12:08:12.270Z,88.70
2022-11-26T12:10:51.925Z,88.20
2022-11-26T12:13:23.771Z,88.10
2022-11-26T12:15:59.465Z,87.60
2022-11-26T12:18:35.873Z,87.60
2022-11-26T12:21:11.010Z,87.40
2022-11-26T12:23:48.820Z,87.50
2022-11-26T12:26:23.569Z,87.20
2022-11-26T12:28:58.179Z,87.30
2022-11-26T12:31:34.617Z,87.60
2022-11-26T12:34:12.695Z,87.70
2022-11-26T12:36:49.259Z,87.30
2022-11-26T12:39:28.783Z,87.20
2022-11-26T12:42:01.728Z,87.00
2022-11-26T12:44:38.913Z,87.10
2022-11-26T12:47:18.786Z,87.40
2022-11-26T12:50:04.909Z,86.90
2022-11-26T12:52:41.170Z,86.50
2022-11-26T12:55:18.914Z,85.70
2022-11-26T12:57:53.064Z,85.80
2022-11-26T13:00:30.102Z,85.00
2022-11-26T13:03:03.402Z,85.10
2022-11-26T13:05:48.606Z,84.70
2022-11-26T13:08:37.377Z,84.00
2022-11-26T13:11:22.986Z,84.00
2022-11-26T13:13:59.664Z,84.40
2022-11-26T13:16:39.120Z,84.50
2022-11-26T13:19:13.764Z,84.50
2022-11-26T13:22:01.579Z,84.80
2022-11-26T13:24:51.958Z,85.00
2022-11-26T13:27:39.348Z,85.00
2022-11-26T13:30:21.220Z,84.90
2022-11-26T13:33:32.791Z,85.10
2022-11-26T13:36:35.518Z,84.80
2022-11-26T13:39:42.291Z,84.90
2022-11-26T13:42:33.535Z,84.60
2022-11-26T13:45:15.722Z,84.50
2022-11-26T13:47:47.667Z,84.90
2022-11-26T13:50:21.374Z,84.80
2022-11-26T13:52:57.425Z,84.80
2022-11-26T13:55:30.654Z,84.90
2022-11-26T13:58:02.824Z,84.40
2022-11-26T14:00:34.139Z,84.50
2022-11-26T14:03:04.188Z,84.40
2022-11-26T14:06:17.122Z,84.30
2022-11-26T14:08:51.388Z,84.40
2022-11-26T14:11:56.902Z,84.40
2022-11-26T14:14:34.329Z,84.50
2022-11-26T14:17:31.107Z,84.60
2022-11-26T14:20:13.556Z,84.50
2022-11-26T14:22:41.985Z,84.40
2022-11-26T14:25:15.765Z,84.60
2022-11-26T14:27:53.732Z,84.40
2022-11-26T14:30:27.884Z,84.50
2022-11-26T14:33:16.235Z,84.60
2022-11-26T14:35:57.039Z,84.70
2022-11-26T14:38:31.475Z,84.60
2022-11-26T14:41:02.744Z,84.60
2022-11-26T14:43:31.291Z,84.40
2022-11-26T14:46:07.623Z,84.50
2022-11-26T14:48:42.817Z,84.10
2022-11-26T14:51:11.273Z,84.00
2022-11-26T14:53:48.965Z,84.10
2022-11-26T14:56:22.692Z,84.10
2022-11-26T14:58:55.410Z,84.10
2022-11-26T15:01:25.838Z,84.10
2022-11-26T15:04:00.815Z,84.30
2022-11-26T15:06:34.989Z,84.30
2022-11-26T15:09:10.964Z,84.10
2022-11-26T15:11:46.967Z,84.10
2022-11-26T15:14:26.774Z,84.20
2022-11-26T15:16:59.415Z,84.20
2022-11-26T15:19:33.045Z,84.30
2022-11-26T15:22:06.479Z,84.30
2022-11-26T15:24:35.100Z,84.40
2022-11-26T15:27:04.978Z,84.50
2022-11-26T15:29:41.153Z,84.60
2022-11-26T15:32:28.612Z,84.50
2022-11-26T15:35:00.491Z,84.50
2022-11-26T15:37:29.142Z,84.50
2022-11-26T15:40:23.780Z,84.60
2022-11-26T15:42:58.792Z,84.60
2022-11-26T15:45:41.749Z,84.70
2022-11-26T15:48:27.491Z,84.80
2022-11-26T15:51:01.459Z,84.90
2022-11-26T15:53:34.533Z,84.90
2022-11-26T15:56:05.099Z,85.00
2022-11-26T15:58:38.330Z,85.20
2022-11-26T16:01:14.451Z,85.20
2022-11-26T16:03:47.218Z,85.30
2022-11-26T16:06:35.368Z,85.30
2022-11-26T16:09:27.889Z,85.30
2022-11-26T16:12:01.559Z,85.30
2022-11-26T16:14:37.018Z,85.50
2022-11-26T16:17:11.744Z,85.60
2022-11-26T16:19:48.571Z,85.80
2022-11-26T16:22:22.814Z,85.90
2022-11-26T16:25:04.124Z,85.80
2022-11-26T16:27:34.407Z,85.80
2022-11-26T16:30:14.806Z,86.00
2022-11-26T16:32:43.106Z,85.90
2022-11-26T16:35:37.703Z,86.10
2022-11-26T16:38:00.435Z,86.00
2022-11-26T16:40:30.241Z,86.20
2022-11-26T16:42:58.686Z,86.10
2022-11-26T16:45:28.373Z,86.20
2022-11-26T16:47:57.253Z,86.30
2022-11-26T16:50:27.772Z,86.20
2022-11-26T16:52:57.035Z,86.30
2022-11-26T16:55:27.350Z,86.30
2022-11-26T16:58:00.098Z,86.30
2022-11-26T17:00:29.738Z,86.30
2022-11-26T17:02:58.143Z,86.40
2022-11-26T17:05:26.543Z,86.40
2022-11-26T17:07:57.824Z,86.50
2022-11-26T17:10:29.224Z,86.50
2022-11-26T17:12:57.998Z,86.60
2022-11-26T17:15:26.824Z,86.50
2022-11-26T17:18:03.442Z,86.50
2022-11-26T17:20:31.840Z,86.70
2022-11-26T17:23:00.272Z,86.70
2022-11-26T17:25:28.643Z,86.70
2022-11-26T17:27:57.049Z,86.80
2022-11-26T17:30:26.140Z,86.80
2022-11-26T17:32:55.963Z,86.80
2022-11-26T17:35:24.316Z,86.90
2022-11-26T17:37:52.695Z,86.80
2022-11-26T17:40:24.264Z,86.90
2022-11-26T17:42:52.610Z,86.80
2022-11-26T17:45:21.574Z,86.60
2022-11-26T17:47:51.148Z,86.80
2022-11-26T17:50:25.706Z,86.80
2022-11-26T17:52:54.843Z,87.00
2022-11-26T17:55:25.465Z,86.90
2022-11-26T17:57:55.213Z,86.90
2022-11-26T18:00:28.177Z,86.90
2022-11-26T18:02:57.489Z,87.00
2022-11-26T18:05:28.280Z,87.20
2022-11-26T18:07:56.687Z,87.10
2022-11-26T18:10:26.004Z,87.10
2022-11-26T18:12:55.448Z,87.00
2022-11-26T18:15:27.594Z,87.20
2022-11-26T18:17:56.874Z,86.90
2022-11-26T18:20:29.989Z,87.30
2022-11-26T18:23:01.188Z,87.20
2022-11-26T18:25:30.669Z,87.40
2022-11-26T18:27:58.988Z,87.10
2022-11-26T18:30:30.650Z,87.40
2022-11-26T18:32:59.211Z,87.60
2022-11-26T18:35:28.931Z,87.60
2022-11-26T18:37:57.253Z,87.70
2022-11-26T18:40:25.737Z,87.90
2022-11-26T18:42:54.320Z,87.80
2022-11-26T18:45:22.858Z,87.70
2022-11-26T18:47:51.187Z,87.80
2022-11-26T18:50:20.612Z,87.90
2022-11-26T18:52:50.348Z,87.70
2022-11-26T18:55:19.499Z,87.50
2022-11-26T18:57:47.827Z,87.50
2022-11-26T19:00:17.149Z,87.40
2022-11-26T19:02:45.501Z,87.50
2022-11-26T19:05:13.985Z,87.40
2022-11-26T19:07:42.340Z,87.30
2022-11-26T19:10:13.442Z,87.60
2022-11-26T19:12:41.764Z,87.50
2022-11-26T19:15:10.669Z,87.50
2022-11-26T19:17:39.078Z,87.40
2022-11-26T19:20:09.308Z,87.40
2022-11-26T19:22:38.162Z,87.40
2022-11-26T19:25:07.807Z,87.50
2022-11-26T19:27:37.465Z,87.50
2022-11-26T19:30:07.617Z,87.30
2022-11-26T19:32:36.070Z,87.40
2022-11-26T19:35:06.193Z,87.40
2022-11-26T19:37:34.649Z,87.40
2022-11-26T19:40:02.987Z,87.30
2022-11-26T19:42:31.940Z,87.30
2022-11-26T19:45:01.673Z,87.60
2022-11-26T19:47:30.035Z,87.50
2022-11-26T19:49:58.434Z,87.40
2022-11-26T19:52:27.003Z,87.60
2022-11-26T19:54:55.312Z,87.50
2022-11-26T19:57:23.734Z,87.30
2022-11-26T19:59:52.682Z,87.30
2022-11-26T20:02:22.452Z,87.20
2022-11-26T20:04:50.758Z,87.40
2022-11-26T20:07:19.153Z,87.70
2022-11-26T20:09:47.589Z,87.60
2022-11-26T20:12:15.878Z,87.30
2022-11-26T20:14:44.299Z,87.40
2022-11-26T20:17:12.650Z,87.50
2022-11-26T20:19:42.623Z,87.90
2022-11-26T20:22:11.139Z,87.90
2022-11-26T20:24:39.564Z,87.70
2022-11-26T20:27:08.034Z,87.90
2022-11-26T20:29:36.475Z,87.80
2022-11-26T20:32:05.178Z,87.80
2022-11-26T20:34:33.776Z,87.70
2022-11-26T20:37:03.900Z,87.70
2022-11-26T20:39:37.345Z,87.70
2022-11-26T20:42:06.096Z,87.90
2022-11-26T20:44:34.492Z,87.60
2022-11-26T20:47:02.800Z,87.60
2022-11-26T20:49:35.261Z,87.60
2022-11-26T20:52:06.881Z,87.70
2022-11-26T20:54:35.698Z,87.90
2022-11-26T20:57:05.984Z,88.00
2022-11-26T20:59:34.711Z,88.20
2022-11-26T21:02:03.369Z,87.80
2022-11-26T21:04:31.946Z,88.00
2022-11-26T21:07:00.532Z,88.10
2022-11-26T21:09:30.425Z,87.90
2022-11-26T21:11:58.848Z,88.10
2022-11-26T21:14:27.239Z,88.20
2022-11-26T21:16:55.783Z,88.10
2022-11-26T21:19:24.797Z,88.00
2022-11-26T21:21:53.361Z,88.00
2022-11-26T21:24:22.045Z,88.00
2022-11-26T21:26:51.951Z,87.90
2022-11-26T21:29:20.605Z,88.20
2022-11-26T21:31:49.108Z,88.20
2022-11-26T21:34:17.546Z,88.30
2022-11-26T21:36:45.892Z,88.20
2022-11-26T21:39:17.592Z,88.40
2022-11-26T21:41:46.123Z,88.20
2022-11-26T21:44:16.158Z,88.10
2022-11-26T21:46:44.730Z,88.00
2022-11-26T21:49:13.195Z,87.90
2022-11-26T21:51:42.555Z,88.10
2022-11-26T21:54:11.115Z,88.40
2022-11-26T21:56:39.749Z,88.40
2022-11-26T21:59:08.115Z,88.50
2022-11-26T22:01:39.105Z,88.30
2022-11-26T22:04:12.131Z,88.30
2022-11-26T22:06:40.601Z,88.20
2022-11-26T22:09:09.887Z,88.20
2022-11-26T22:11:41.991Z,88.30
2022-11-26T22:14:14.542Z,88.30
2022-11-26T22:16:44.372Z,88.30
2022-11-26T22:19:12.755Z,88.40
2022-11-26T22:21:43.127Z,88.50
2022-11-26T22:24:15.488Z,88.60
2022-11-26T22:26:44.710Z,88.60
2022-11-26T22:29:13.821Z,88.60
2022-11-26T22:31:44.490Z,88.60
2022-11-26T22:34:15.654Z,88.50
2022-11-26T22:36:44.719Z,88.80
2022-11-26T22:39:15.173Z,88.50
2022-11-26T22:41:45.364Z,88.70
2022-11-26T22:44:14.577Z,88.60
2022-11-26T22:46:44.734Z,88.70
2022-11-26T22:49:15.667Z,88.80
2022-11-26T22:51:44.147Z,88.70
2022-11-26T22:54:15.516Z,88.60
2022-11-26T22:56:43.882Z,88.70
2022-11-26T22:59:14.882Z,88.60
2022-11-26T23:01:44.991Z,88.50
2022-11-26T23:04:13.712Z,88.50
2022-11-26T23:06:42.393Z,88.30
2022-11-26T23:09:13.444Z,88.40
2022-11-26T23:11:43.421Z,88.30
2022-11-26T23:14:12.346Z,88.30
2022-11-26T23:16:44.200Z,88.40
2022-11-26T23:19:15.664Z,88.30
2022-11-26T23:21:46.796Z,88.30
2022-11-26T23:24:16.178Z,88.20
2022-11-26T23:26:45.036Z,88.30
2022-11-26T23:29:13.662Z,88.30
2022-11-26T23:31:45.111Z,88.10
2022-11-26T23:34:14.003Z,88.30
2022-11-26T23:36:42.307Z,88.40
2022-11-26T23:39:13.775Z,88.40
2022-11-26T23:41:42.134Z,88.30
2022-11-26T23:44:10.470Z,88.40
2022-11-26T23:46:38.906Z,88.40
2022-11-26T23:49:08.736Z,88.30
2022-11-26T23:51:37.084Z,88.20
2022-11-26T23:54:05.740Z,88.50
2022-11-26T23:56:36.586Z,88.60
2022-11-26T23:59:06.215Z,88.70
